createdAt,value
2017-07-17T00:01:33.725Z,17.60
2017-07-17T00:04:00.007Z,17.60
2017-07-17T00:06:26.275Z,17.60
2017-07-17T00:08:52.550Z,17.60
2017-07-17T00:11:18.837Z,17.50
2017-07-17T00:13:45.122Z,17.50
2017-07-17T00:16:11.378Z,17.60
2017-07-17T00:18:37.685Z,17.60
2017-07-17T00:21:03.979Z,17.60
2017-07-17T00:23:30.245Z,17.60
2017-07-17T00:25:56.518Z,17.60
2017-07-17T00:28:22.817Z,17.60
2017-07-17T00:30:49.073Z,17.50
2017-07-17T00:33:15.336Z,17.50
2017-07-17T00:35:48.587Z,17.50
2017-07-17T00:38:14.838Z,17.40
2017-07-17T00:40:41.101Z,17.40
2017-07-17T00:43:07.390Z,17.40
2017-07-17T00:45:33.653Z,17.40
2017-07-17T00:47:59.898Z,17.40
2017-07-17T00:50:26.216Z,17.30
2017-07-17T00:52:52.472Z,17.30
2017-07-17T00:55:19.091Z,17.10
2017-07-17T00:57:45.351Z,17.10
2017-07-17T01:00:11.668Z,16.90
2017-07-17T01:02:37.933Z,17.00
2017-07-17T01:05:04.216Z,17.10
2017-07-17T01:07:30.499Z,17.00
2017-07-17T01:09:56.758Z,17.10
2017-07-17T01:12:23.017Z,17.00
2017-07-17T01:14:49.312Z,16.90
2017-07-17T01:17:15.555Z,16.90
2017-07-17T01:19:41.866Z,16.90
2017-07-17T01:22:08.104Z,16.90
2017-07-17T01:24:34.380Z,16.90
2017-07-17T01:27:00.639Z,16.80
2017-07-17T01:29:26.910Z,16.80
2017-07-17T01:31:53.538Z,16.30
2017-07-17T01:34:19.826Z,16.30
2017-07-17T01:36:46.090Z,16.50
2017-07-17T01:39:12.406Z,16.60
2017-07-17T01:41:38.666Z,16.60
2017-07-17T01:44:05.314Z,16.60
2017-07-17T01:46:31.599Z,16.60
2017-07-17T01:48:57.887Z,16.60
2017-07-17T01:51:24.219Z,16.70
2017-07-17T01:53:50.506Z,16.70
2017-07-17T01:56:16.804Z,16.70
2017-07-17T01:58:43.088Z,16.70
2017-07-17T02:01:09.729Z,16.60
2017-07-17T02:03:36.347Z,16.60
2017-07-17T02:06:02.654Z,16.60
2017-07-17T02:08:28.916Z,16.60
2017-07-17T02:10:55.200Z,16.60
2017-07-17T02:13:21.441Z,16.50
2017-07-17T02:15:47.728Z,16.50
2017-07-17T02:18:14.014Z,16.40
2017-07-17T02:20:40.301Z,16.40
2017-07-17T02:23:06.572Z,16.40
2017-07-17T02:25:32.830Z,16.40
2017-07-17T02:27:59.068Z,16.40
2017-07-17T02:30:25.351Z,16.40
2017-07-17T02:32:51.628Z,16.40
2017-07-17T02:35:17.906Z,16.40
2017-07-17T02:37:44.173Z,16.40
2017-07-17T02:40:10.446Z,16.30
2017-07-17T02:42:36.729Z,16.30
2017-07-17T02:45:03.035Z,16.20
2017-07-17T02:47:29.316Z,16.30
2017-07-17T02:49:55.591Z,16.20
2017-07-17T02:52:21.877Z,16.20
2017-07-17T02:54:48.152Z,16.10
2017-07-17T02:57:14.434Z,16.10
2017-07-17T02:59:40.709Z,16.10
2017-07-17T03:02:06.991Z,16.10
2017-07-17T03:04:33.256Z,16.10
2017-07-17T03:06:59.524Z,16.10
2017-07-17T03:09:26.160Z,16.10
2017-07-17T03:11:52.813Z,16.00
2017-07-17T03:14:19.072Z,16.00
2017-07-17T03:16:45.345Z,16.00
2017-07-17T03:19:11.622Z,16.00
2017-07-17T03:21:37.923Z,15.90
2017-07-17T03:24:14.189Z,15.80
2017-07-17T03:26:40.488Z,15.80
2017-07-17T03:29:06.725Z,15.80
2017-07-17T03:31:33.002Z,15.90
2017-07-17T03:33:59.281Z,15.90
2017-07-17T03:36:25.929Z,15.90
2017-07-17T03:38:52.214Z,15.90
2017-07-17T03:41:18.521Z,16.00
2017-07-17T03:43:44.784Z,16.00
2017-07-17T03:46:11.082Z,16.00
2017-07-17T03:48:37.355Z,16.00
2017-07-17T03:51:03.672Z,16.00
2017-07-17T03:53:29.989Z,16.00
2017-07-17T03:55:56.279Z,16.00
2017-07-17T03:58:22.531Z,16.00
2017-07-17T04:00:48.839Z,16.00
2017-07-17T04:03:15.119Z,15.90
2017-07-17T04:05:41.400Z,15.90
2017-07-17T04:08:07.678Z,15.90
2017-07-17T04:10:33.918Z,16.00
2017-07-17T04:13:00.215Z,16.00
2017-07-17T04:15:26.477Z,16.00
2017-07-17T04:17:52.747Z,16.00
2017-07-17T04:20:19.052Z,16.00
2017-07-17T04:22:45.727Z,16.10
2017-07-17T04:25:11.992Z,16.10
2017-07-17T04:27:38.304Z,16.10
2017-07-17T04:30:04.552Z,16.20
2017-07-17T04:32:30.838Z,16.20
2017-07-17T04:34:57.100Z,16.30
2017-07-17T04:37:23.402Z,16.20
2017-07-17T04:39:49.670Z,16.20
2017-07-17T04:42:15.938Z,16.30
2017-07-17T04:44:42.203Z,16.30
2017-07-17T04:47:08.482Z,16.30
2017-07-17T04:49:34.755Z,16.30
2017-07-17T04:52:01.081Z,16.40
2017-07-17T04:54:27.378Z,16.40
2017-07-17T04:56:53.665Z,16.40
2017-07-17T04:59:19.938Z,16.60
2017-07-17T05:01:46.220Z,16.50
2017-07-17T05:04:12.450Z,16.50
2017-07-17T05:06:39.087Z,16.60
2017-07-17T05:09:05.381Z,16.70
2017-07-17T05:11:31.647Z,16.80
2017-07-17T05:13:57.910Z,16.80
2017-07-17T05:16:24.585Z,16.60
2017-07-17T05:18:50.872Z,16.60
2017-07-17T05:21:17.164Z,16.60
2017-07-17T05:23:43.445Z,16.70
2017-07-17T05:26:09.714Z,16.80
2017-07-17T05:28:35.986Z,17.00
2017-07-17T05:31:02.288Z,17.10
2017-07-17T05:33:28.637Z,17.10
2017-07-17T05:35:54.944Z,17.20
2017-07-17T05:38:21.277Z,17.20
2017-07-17T05:40:47.559Z,17.20
2017-07-17T05:43:13.874Z,17.30
2017-07-17T05:45:40.535Z,17.40
2017-07-17T05:48:06.815Z,17.40
2017-07-17T05:50:33.100Z,17.50
2017-07-17T05:52:59.399Z,17.60
2017-07-17T05:55:26.034Z,17.70
2017-07-17T05:57:52.708Z,17.80
2017-07-17T06:00:18.997Z,17.80
2017-07-17T06:02:45.505Z,17.90
2017-07-17T06:05:11.795Z,18.00
2017-07-17T06:07:38.280Z,18.10
2017-07-17T06:10:04.553Z,18.30
2017-07-17T06:12:30.852Z,18.40
2017-07-17T06:14:57.732Z,18.40
2017-07-17T06:17:24.004Z,18.40
2017-07-17T06:19:50.285Z,18.50
2017-07-17T06:22:16.559Z,18.50
2017-07-17T06:24:42.851Z,18.60
2017-07-17T06:27:09.137Z,18.70
2017-07-17T06:29:35.423Z,18.90
2017-07-17T06:32:01.656Z,19.10
2017-07-17T06:34:27.937Z,19.10
2017-07-17T06:36:54.592Z,19.20
2017-07-17T06:39:20.916Z,19.20
2017-07-17T06:41:47.173Z,19.40
2017-07-17T06:44:13.433Z,19.50
2017-07-17T06:46:39.687Z,19.60
2017-07-17T06:49:06.381Z,19.70
2017-07-17T06:51:32.680Z,19.70
2017-07-17T06:53:58.951Z,19.80
2017-07-17T06:56:25.214Z,19.90
2017-07-17T06:58:51.873Z,20.00
2017-07-17T07:01:18.140Z,20.00
2017-07-17T07:03:44.435Z,20.20
2017-07-17T07:06:10.723Z,20.30
2017-07-17T07:08:36.998Z,20.40
2017-07-17T07:11:03.277Z,20.40
2017-07-17T07:13:29.591Z,20.60
2017-07-17T07:15:55.846Z,20.70
2017-07-17T07:18:22.141Z,20.80
2017-07-17T07:20:48.471Z,21.00
2017-07-17T07:23:15.509Z,21.10
2017-07-17T07:25:41.782Z,21.10
2017-07-17T07:28:08.089Z,21.30
2017-07-17T07:30:34.388Z,21.40
2017-07-17T07:33:00.681Z,21.60
2017-07-17T07:35:27.621Z,22.00
2017-07-17T07:37:53.917Z,22.00
2017-07-17T07:40:20.164Z,22.10
2017-07-17T07:42:46.482Z,22.40
2017-07-17T07:45:12.773Z,22.50
2017-07-17T07:47:39.140Z,22.50
2017-07-17T07:50:05.436Z,22.60
2017-07-17T07:52:31.755Z,22.50
2017-07-17T07:54:58.029Z,22.40
2017-07-17T07:57:24.349Z,22.30
2017-07-17T07:59:51.549Z,22.20
2017-07-17T08:02:17.809Z,22.10
2017-07-17T08:04:44.156Z,22.10
2017-07-17T08:07:10.527Z,22.40
2017-07-17T08:09:36.850Z,22.40
2017-07-17T08:12:03.116Z,22.40
2017-07-17T08:14:29.404Z,22.60
2017-07-17T08:16:55.692Z,22.70
2017-07-17T08:19:21.997Z,22.80
2017-07-17T08:21:48.311Z,22.60
2017-07-17T08:24:14.583Z,22.70
2017-07-17T08:26:40.886Z,22.80
2017-07-17T08:29:07.476Z,22.80
2017-07-17T08:31:33.781Z,23.00
2017-07-17T08:34:00.041Z,23.10
2017-07-17T08:36:26.329Z,23.30
2017-07-17T08:38:52.609Z,23.30
2017-07-17T08:41:18.888Z,23.40
2017-07-17T08:43:45.174Z,23.50
2017-07-17T08:46:12.038Z,23.60
2017-07-17T08:48:38.311Z,23.70
2017-07-17T08:51:04.670Z,23.80
2017-07-17T08:53:30.935Z,23.80
2017-07-17T08:55:57.232Z,23.80
2017-07-17T08:58:23.504Z,23.80
2017-07-17T09:00:49.786Z,23.80
2017-07-17T09:03:16.052Z,23.90
2017-07-17T09:05:42.361Z,24.00
2017-07-17T09:08:08.641Z,24.10
2017-07-17T09:10:34.935Z,24.10
2017-07-17T09:13:01.571Z,23.90
2017-07-17T09:15:27.837Z,23.90
2017-07-17T09:17:54.097Z,24.10
2017-07-17T09:20:20.400Z,24.10
2017-07-17T09:22:46.669Z,24.20
2017-07-17T09:25:12.967Z,24.20
2017-07-17T09:27:39.243Z,24.20
2017-07-17T09:30:05.536Z,24.40
2017-07-17T09:32:31.865Z,24.40
2017-07-17T09:34:58.144Z,24.30
2017-07-17T09:37:24.422Z,24.30
2017-07-17T09:39:57.785Z,24.40
2017-07-17T09:42:24.039Z,24.60
2017-07-17T09:44:50.322Z,24.60
2017-07-17T09:47:17.421Z,24.60
2017-07-17T09:49:43.702Z,24.70
2017-07-17T09:52:10.044Z,25.00
2017-07-17T09:54:36.368Z,25.20
2017-07-17T09:57:02.675Z,25.40
2017-07-17T09:59:28.965Z,25.50
2017-07-17T10:01:55.247Z,25.60
2017-07-17T10:04:21.528Z,25.70
2017-07-17T10:06:47.804Z,25.80
2017-07-17T10:09:14.133Z,25.80
2017-07-17T10:11:40.413Z,25.80
2017-07-17T10:14:06.703Z,25.90
2017-07-17T10:16:33.009Z,26.10
2017-07-17T10:18:59.327Z,26.40
2017-07-17T10:21:25.611Z,26.60
2017-07-17T10:23:51.878Z,26.80
2017-07-17T10:26:18.184Z,26.80
2017-07-17T10:28:44.504Z,26.60
2017-07-17T10:31:10.789Z,26.60
2017-07-17T10:33:37.068Z,27.00
2017-07-17T10:36:03.388Z,27.20
2017-07-17T10:38:29.635Z,27.40
2017-07-17T10:40:55.931Z,27.60
2017-07-17T10:43:22.265Z,27.70
2017-07-17T10:45:48.962Z,27.90
2017-07-17T10:48:15.231Z,27.90
2017-07-17T10:50:41.596Z,27.90
2017-07-17T10:53:07.914Z,28.00
2017-07-17T10:55:34.177Z,28.30
2017-07-17T10:58:00.442Z,28.50
2017-07-17T11:00:26.707Z,28.50
2017-07-17T11:02:53.004Z,28.50
2017-07-17T11:05:19.297Z,28.60
2017-07-17T11:07:45.602Z,28.80
2017-07-17T11:10:11.941Z,29.10
2017-07-17T11:12:39.230Z,29.30
2017-07-17T11:15:05.883Z,28.80
2017-07-17T11:17:35.552Z,28.80
2017-07-17T11:20:01.840Z,28.80
2017-07-17T11:22:28.112Z,28.50
2017-07-17T11:24:54.387Z,28.50
2017-07-17T11:27:20.676Z,28.40
2017-07-17T11:29:46.951Z,28.50
2017-07-17T11:32:13.243Z,28.40
2017-07-17T11:34:39.531Z,28.70
2017-07-17T11:37:05.805Z,29.10
2017-07-17T11:39:32.452Z,29.80
2017-07-17T11:41:59.099Z,30.10
2017-07-17T11:44:25.380Z,30.10
2017-07-17T11:56:59.079Z,37.50
2017-07-17T11:59:25.384Z,39.40
2017-07-17T12:01:51.657Z,40.70
2017-07-17T12:04:17.964Z,41.50
2017-07-17T12:06:44.252Z,41.80
2017-07-17T12:09:10.612Z,43.30
2017-07-17T12:11:36.918Z,44.50
2017-07-17T12:14:03.219Z,46.10
2017-07-17T12:16:29.525Z,46.90
2017-07-17T12:18:55.810Z,47.20
2017-07-17T12:21:22.105Z,46.80
2017-07-17T12:23:48.390Z,47.30
2017-07-17T12:26:14.703Z,48.90
2017-07-17T12:28:40.977Z,50.70
2017-07-17T12:31:07.423Z,52.60
2017-07-17T12:33:33.707Z,53.40
2017-07-17T12:35:59.993Z,53.50
2017-07-17T12:38:26.353Z,53.80
2017-07-17T12:40:52.651Z,54.30
2017-07-17T12:43:19.042Z,54.90
2017-07-17T12:45:45.338Z,55.60
2017-07-17T12:48:11.623Z,56.40
2017-07-17T12:50:37.942Z,57.00
2017-07-17T12:53:04.247Z,56.70
2017-07-17T12:55:30.525Z,56.30
2017-07-17T12:57:56.805Z,56.10
2017-07-17T13:00:23.124Z,55.90
2017-07-17T13:02:49.424Z,55.60
2017-07-17T13:05:15.709Z,55.10
2017-07-17T13:07:42.003Z,55.60
2017-07-17T13:10:08.302Z,56.30
2017-07-17T13:12:34.870Z,55.60
2017-07-17T13:15:01.160Z,56.10
2017-07-17T13:17:27.444Z,56.50
2017-07-17T13:19:53.773Z,57.30
2017-07-17T13:22:20.066Z,57.50
2017-07-17T13:24:46.342Z,56.00
2017-07-17T13:27:12.619Z,56.30
2017-07-17T13:29:38.922Z,57.10
2017-07-17T13:32:05.182Z,57.00
2017-07-17T13:34:31.501Z,57.50
2017-07-17T13:36:57.757Z,57.80
2017-07-17T13:39:24.048Z,58.20
2017-07-17T13:41:50.332Z,59.00
2017-07-17T13:44:16.618Z,58.50
2017-07-17T13:46:42.890Z,58.70
2017-07-17T13:49:09.230Z,59.00
2017-07-17T13:51:35.531Z,59.00
2017-07-17T13:54:01.824Z,57.60
2017-07-17T13:56:28.108Z,55.20
2017-07-17T13:58:54.353Z,56.20
2017-07-17T14:01:20.681Z,57.00
2017-07-17T14:03:46.947Z,57.10
2017-07-17T14:06:13.276Z,57.00
2017-07-17T14:08:39.560Z,56.50
2017-07-17T14:11:05.833Z,55.20
2017-07-17T14:13:32.092Z,55.10
2017-07-17T14:15:58.390Z,53.00
2017-07-17T14:18:25.020Z,52.30
2017-07-17T14:20:51.350Z,52.30
2017-07-17T14:23:17.662Z,51.10
2017-07-17T14:25:44.867Z,49.40
2017-07-17T14:28:11.133Z,48.00
2017-07-17T14:30:37.500Z,47.60
2017-07-17T14:33:03.774Z,47.00
2017-07-17T14:35:30.063Z,46.80
2017-07-17T14:37:56.367Z,48.60
2017-07-17T14:40:22.696Z,50.80
2017-07-17T14:42:49.017Z,52.50
2017-07-17T14:45:15.303Z,53.40
2017-07-17T14:47:41.579Z,54.10
2017-07-17T14:50:07.889Z,54.50
2017-07-17T14:52:34.200Z,54.50
2017-07-17T14:55:00.482Z,55.00
2017-07-17T14:57:26.764Z,54.90
2017-07-17T14:59:53.444Z,54.80
2017-07-17T15:02:19.698Z,54.00
2017-07-17T15:04:45.997Z,50.90
2017-07-17T15:07:12.933Z,47.10
2017-07-17T15:09:39.197Z,45.10
2017-07-17T15:12:05.500Z,45.50
2017-07-17T15:14:31.799Z,46.10
2017-07-17T15:16:58.104Z,47.90
2017-07-17T15:19:24.363Z,49.50
2017-07-17T15:21:50.679Z,48.90
2017-07-17T15:24:16.977Z,48.10
2017-07-17T15:26:43.257Z,49.50
2017-07-17T15:29:09.552Z,50.20
2017-07-17T15:31:35.869Z,50.80
2017-07-17T15:34:02.194Z,49.80
2017-07-17T15:36:28.524Z,48.20
2017-07-17T15:38:54.798Z,47.20
2017-07-17T15:41:21.432Z,45.90
2017-07-17T15:43:47.769Z,46.30
2017-07-17T15:46:14.087Z,47.20
2017-07-17T15:48:40.409Z,47.20
2017-07-17T15:51:06.799Z,46.30
2017-07-17T15:53:33.144Z,45.30
2017-07-17T15:56:00.233Z,45.50
2017-07-17T15:58:26.558Z,45.60
2017-07-17T16:00:52.913Z,44.80
2017-07-17T16:03:19.228Z,45.30
2017-07-17T16:05:45.521Z,45.70
2017-07-17T16:08:11.818Z,46.10
2017-07-17T16:10:38.149Z,46.30
2017-07-17T16:13:04.557Z,46.40
2017-07-17T16:15:30.869Z,46.00
2017-07-17T16:17:57.192Z,45.00
2017-07-17T16:20:23.485Z,44.30
2017-07-17T16:22:49.752Z,44.20
2017-07-17T16:25:16.045Z,44.50
2017-07-17T16:27:42.705Z,44.00
2017-07-17T16:30:09.016Z,44.00
2017-07-17T16:32:35.327Z,43.40
2017-07-17T16:35:01.616Z,43.10
2017-07-17T16:37:27.876Z,41.90
2017-07-17T16:39:54.179Z,41.80
2017-07-17T16:42:20.515Z,41.40
2017-07-17T16:44:46.833Z,41.40
2017-07-17T16:47:13.118Z,41.10
2017-07-17T16:49:39.384Z,41.10
2017-07-17T16:52:05.678Z,41.30
2017-07-17T16:54:31.975Z,41.20
2017-07-17T16:56:58.282Z,41.10
2017-07-17T16:59:24.569Z,40.90
2017-07-17T17:01:51.080Z,40.10
2017-07-17T17:04:17.379Z,39.20
2017-07-17T17:06:43.647Z,38.40
2017-07-17T17:09:09.935Z,37.50
2017-07-17T17:11:36.192Z,36.50
2017-07-17T17:14:02.475Z,35.80
2017-07-17T17:16:28.771Z,35.10
2017-07-17T17:18:55.041Z,34.50
2017-07-17T17:21:21.374Z,34.00
2017-07-17T17:23:47.700Z,33.50
2017-07-17T17:26:13.952Z,33.10
2017-07-17T17:28:41.175Z,32.90
2017-07-17T17:31:07.489Z,32.50
2017-07-17T17:33:34.148Z,31.90
2017-07-17T17:36:00.462Z,32.00
2017-07-17T17:38:26.813Z,31.70
2017-07-17T17:40:53.116Z,31.50
2017-07-17T17:43:19.408Z,31.20
2017-07-17T17:45:45.725Z,30.90
2017-07-17T17:48:12.048Z,30.80
2017-07-17T17:50:38.378Z,30.60
2017-07-17T17:53:04.721Z,30.50
2017-07-17T17:55:31.015Z,30.30
2017-07-17T17:57:57.733Z,30.10
2017-07-17T18:00:24.983Z,29.90
2017-07-17T18:02:51.251Z,29.80
2017-07-17T18:05:17.558Z,29.70
2017-07-17T18:07:43.845Z,29.50
2017-07-17T18:10:10.200Z,29.40
2017-07-17T18:12:36.534Z,29.30
2017-07-17T18:15:03.155Z,29.20
2017-07-17T18:17:29.451Z,29.10
2017-07-17T18:19:56.773Z,28.90
2017-07-17T18:22:23.080Z,28.80
2017-07-17T18:24:49.537Z,28.70
2017-07-17T18:27:15.896Z,28.50
2017-07-17T18:29:42.153Z,28.40
2017-07-17T18:32:08.815Z,28.20
2017-07-17T18:34:35.289Z,28.10
2017-07-17T18:37:02.577Z,27.80
2017-07-17T18:39:29.638Z,27.70
2017-07-17T18:41:55.973Z,27.60
2017-07-17T18:44:23.294Z,27.40
2017-07-17T18:46:49.664Z,27.30
2017-07-17T18:49:16.843Z,27.20
2017-07-17T18:51:43.240Z,27.00
2017-07-17T18:54:09.590Z,26.90
2017-07-17T18:56:35.947Z,26.80
2017-07-17T18:59:02.346Z,26.70
2017-07-17T19:01:28.825Z,26.60
2017-07-17T19:03:55.351Z,26.50
2017-07-17T19:06:21.936Z,26.40
2017-07-17T19:08:48.970Z,26.20
2017-07-17T19:11:15.293Z,26.00
2017-07-17T19:13:41.691Z,25.90
2017-07-17T19:16:08.099Z,25.70
2017-07-17T19:18:34.412Z,25.60
2017-07-17T19:21:01.206Z,25.40
2017-07-17T19:23:27.779Z,25.40
2017-07-17T19:25:54.146Z,25.40
2017-07-17T19:28:20.594Z,25.20
2017-07-17T19:30:47.867Z,25.10
2017-07-17T19:33:14.908Z,25.00
2017-07-17T19:35:41.377Z,25.00
2017-07-17T19:38:09.592Z,24.90
2017-07-17T19:40:36.030Z,24.70
2017-07-17T19:43:02.429Z,24.70
2017-07-17T19:45:29.968Z,24.30
2017-07-17T19:47:56.543Z,24.30
2017-07-17T19:50:22.860Z,24.10
2017-07-17T19:52:49.311Z,24.10
2017-07-17T19:55:15.702Z,24.10
2017-07-17T19:57:41.983Z,24.10
2017-07-17T20:00:08.325Z,24.00
2017-07-17T20:02:34.732Z,24.00
2017-07-17T20:05:01.162Z,24.00
2017-07-17T20:07:28.384Z,23.80
2017-07-17T20:09:54.677Z,23.70
2017-07-17T20:12:21.121Z,23.60
2017-07-17T20:14:47.589Z,23.60
2017-07-17T20:17:13.898Z,23.50
2017-07-17T20:19:40.298Z,23.40
2017-07-17T20:22:06.575Z,23.30
2017-07-17T20:24:32.925Z,23.20
2017-07-17T20:27:00.090Z,23.10
2017-07-17T20:29:26.387Z,23.10
2017-07-17T20:31:53.724Z,23.10
2017-07-17T20:34:20.114Z,23.00
2017-07-17T20:36:46.458Z,23.00
2017-07-17T20:39:12.761Z,22.90
2017-07-17T20:41:39.077Z,22.90
2017-07-17T20:44:05.373Z,22.80
2017-07-17T20:46:31.695Z,22.80
2017-07-17T20:48:57.952Z,22.80
2017-07-17T20:51:24.566Z,22.80
2017-07-17T20:53:50.876Z,22.80
2017-07-17T20:56:17.191Z,22.40
2017-07-17T20:58:43.508Z,22.20
2017-07-17T21:01:10.098Z,22.10
2017-07-17T21:03:36.377Z,22.00
2017-07-17T21:06:02.691Z,21.90
2017-07-17T21:08:29.023Z,21.90
2017-07-17T21:10:55.604Z,22.00
2017-07-17T21:13:21.869Z,22.10
2017-07-17T21:15:48.191Z,22.10
2017-07-17T21:18:15.100Z,22.10
2017-07-17T21:20:42.392Z,22.10
2017-07-17T21:23:10.535Z,22.10
2017-07-17T21:25:36.854Z,22.10
2017-07-17T21:28:03.168Z,22.10
2017-07-17T21:30:29.428Z,22.00
2017-07-17T21:32:55.753Z,22.00
2017-07-17T21:35:22.050Z,22.00
2017-07-17T21:37:48.360Z,22.00
2017-07-17T21:40:14.632Z,21.80
2017-07-17T21:42:40.917Z,21.70
2017-07-17T21:45:07.221Z,21.70
2017-07-17T21:47:33.465Z,21.60
2017-07-17T21:49:59.752Z,21.70
2017-07-17T21:52:26.048Z,21.60
2017-07-17T21:54:52.919Z,21.60
2017-07-17T21:57:19.165Z,21.60
2017-07-17T21:59:45.434Z,21.50
2017-07-17T22:02:11.770Z,21.50
2017-07-17T22:04:38.060Z,21.50
2017-07-17T22:07:04.332Z,21.50
2017-07-17T22:09:30.590Z,21.40
2017-07-17T22:11:57.165Z,21.40
2017-07-17T22:14:23.449Z,21.20
2017-07-17T22:16:49.701Z,20.90
2017-07-17T22:19:15.988Z,20.90
2017-07-17T22:21:42.323Z,21.00
2017-07-17T22:24:08.631Z,21.00
2017-07-17T22:26:35.290Z,20.80
2017-07-17T22:29:01.608Z,20.80
2017-07-17T22:31:27.851Z,20.80
2017-07-17T22:33:54.152Z,20.70
2017-07-17T22:36:20.448Z,20.80
2017-07-17T22:38:46.711Z,20.60
2017-07-17T22:41:12.984Z,20.40
2017-07-17T22:43:39.259Z,20.50
2017-07-17T22:46:05.827Z,20.50
2017-07-17T22:48:32.078Z,20.40
2017-07-17T22:50:58.406Z,20.50
2017-07-17T22:53:24.705Z,20.50
2017-07-17T22:55:50.983Z,20.50
2017-07-17T22:58:17.260Z,20.40
2017-07-17T23:00:43.532Z,20.30
2017-07-17T23:03:10.206Z,20.30
2017-07-17T23:05:36.460Z,20.20
2017-07-17T23:08:02.730Z,20.10
2017-07-17T23:10:28.996Z,20.20
2017-07-17T23:12:55.273Z,20.10
2017-07-17T23:15:21.563Z,20.10
2017-07-17T23:17:47.829Z,20.10
2017-07-17T23:20:14.093Z,20.00
2017-07-17T23:22:40.369Z,19.90
2017-07-17T23:25:06.994Z,19.80
2017-07-17T23:27:33.626Z,19.90
2017-07-17T23:30:00.276Z,19.90
2017-07-17T23:32:26.913Z,19.80
2017-07-17T23:34:53.560Z,19.70
2017-07-17T23:37:19.857Z,19.70
2017-07-17T23:39:46.125Z,19.70
2017-07-17T23:42:12.402Z,19.70
2017-07-17T23:44:38.748Z,19.80
2017-07-17T23:47:05.000Z,19.80
2017-07-17T23:49:31.278Z,19.80
2017-07-17T23:51:57.557Z,19.70
2017-07-17T23:54:23.864Z,19.80
2017-07-17T23:56:50.121Z,19.80
2017-07-17T23:59:16.406Z,19.80
